createdAt,value
2023-12-04T00:00:36.979Z,94662.40
2023-12-04T00:03:23.343Z,94662.40
2023-12-04T00:05:49.864Z,94668.00
2023-12-04T00:08:27.510Z,94667.60
2023-12-04T00:10:54.623Z,94664.60
2023-12-04T00:13:20.954Z,94662.80
2023-12-04T00:15:47.387Z,94663.80
2023-12-04T00:18:14.556Z,94664.40
2023-12-04T00:20:40.880Z,94669.00
2023-12-04T00:23:07.313Z,94667.20
2023-12-04T00:25:33.913Z,94669.00
2023-12-04T00:28:00.128Z,94673.80
2023-12-04T00:30:26.633Z,94680.00
2023-12-04T00:32:53.995Z,94673.80
2023-12-04T00:35:21.201Z,94678.00
2023-12-04T00:37:47.532Z,94682.20
2023-12-04T00:40:15.324Z,94678.60
2023-12-04T00:42:49.267Z,94680.00
2023-12-04T00:45:17.671Z,94688.40
2023-12-04T00:47:49.678Z,94696.40
2023-12-04T00:53:48.727Z,94686.80
2023-12-04T00:56:16.798Z,94690.60
2023-12-04T00:58:43.257Z,94688.00
2023-12-04T01:01:09.756Z,94691.40
2023-12-04T01:03:36.235Z,94689.40
2023-12-04T01:06:02.838Z,94690.20
2023-12-04T01:08:29.258Z,94682.00
2023-12-04T01:10:55.683Z,94681.40
2023-12-04T01:13:28.674Z,94676.00
2023-12-04T01:15:55.074Z,94671.00
2023-12-04T01:18:22.433Z,94675.60
2023-12-04T01:20:48.777Z,94679.00
2023-12-04T01:23:15.566Z,94680.20
2023-12-04T01:25:44.712Z,94674.00
2023-12-04T01:28:11.240Z,94683.80
2023-12-04T01:30:40.713Z,94685.00
2023-12-04T01:33:07.587Z,94685.40
2023-12-04T01:35:35.622Z,94687.80
2023-12-04T01:38:02.449Z,94693.20
2023-12-04T01:40:29.235Z,94691.20
2023-12-04T01:42:56.822Z,94692.40
2023-12-04T01:45:25.364Z,94687.20
2023-12-04T01:47:52.175Z,94687.80
2023-12-04T01:50:18.734Z,94684.40
2023-12-04T01:52:45.265Z,94686.40
2023-12-04T01:55:11.830Z,94682.60
2023-12-04T01:57:38.696Z,94685.60
2023-12-04T02:00:25.294Z,94681.60
2023-12-04T02:02:52.603Z,94681.80
2023-12-04T02:05:20.517Z,94676.80
2023-12-04T02:07:48.613Z,94674.00
2023-12-04T02:10:15.573Z,94673.60
2023-12-04T02:12:43.327Z,94674.80
2023-12-04T02:15:09.719Z,94677.20
2023-12-04T02:17:36.222Z,94675.20
2023-12-04T02:20:04.291Z,94677.60
2023-12-04T02:22:30.598Z,94684.40
2023-12-04T02:25:00.480Z,94699.20
2023-12-04T02:27:27.182Z,94697.80
2023-12-04T02:29:54.163Z,94688.00
2023-12-04T02:32:20.891Z,94687.80
2023-12-04T02:34:47.662Z,94684.80
2023-12-04T02:37:14.154Z,94686.60
2023-12-04T02:39:40.649Z,94678.40
2023-12-04T02:42:07.086Z,94678.60
2023-12-04T02:44:33.423Z,94677.60
2023-12-04T02:47:00.456Z,94680.20
2023-12-04T02:49:26.886Z,94677.20
2023-12-04T02:51:53.295Z,94678.00
2023-12-04T02:54:19.991Z,94681.60
2023-12-04T02:56:46.358Z,94682.60
2023-12-04T02:59:12.723Z,94681.00
2023-12-04T03:01:40.179Z,94688.80
2023-12-04T03:04:06.904Z,94692.80
2023-12-04T03:06:33.652Z,94683.80
2023-12-04T03:09:00.196Z,94688.40
2023-12-04T03:11:26.524Z,94690.40
2023-12-04T03:13:52.927Z,94697.40
2023-12-04T03:16:19.299Z,94709.00
2023-12-04T03:18:45.756Z,94709.80
2023-12-04T03:21:12.463Z,94711.20
2023-12-04T03:23:39.623Z,94714.00
2023-12-04T03:26:05.882Z,94717.40
2023-12-04T03:28:32.484Z,94720.40
2023-12-04T03:30:59.027Z,94724.20
2023-12-04T03:33:25.464Z,94721.80
2023-12-04T03:35:52.529Z,94717.60
2023-12-04T03:38:18.796Z,94714.80
2023-12-04T03:40:44.999Z,94721.60
2023-12-04T03:43:11.520Z,94730.80
2023-12-04T03:45:37.900Z,94725.00
2023-12-04T03:48:04.315Z,94720.80
2023-12-04T03:50:30.588Z,94723.20
2023-12-04T03:52:56.864Z,94723.80
2023-12-04T03:55:23.142Z,94726.00
2023-12-04T03:57:49.662Z,94727.00
2023-12-04T04:00:16.010Z,94727.80
2023-12-04T04:02:42.415Z,94723.80
2023-12-04T04:05:08.898Z,94728.60
2023-12-04T04:07:35.281Z,94727.40
2023-12-04T04:10:04.736Z,94725.60
2023-12-04T04:12:31.393Z,94724.20
2023-12-04T04:14:57.857Z,94725.20
2023-12-04T04:17:27.152Z,94726.80
2023-12-04T04:19:56.367Z,94730.80
2023-12-04T04:22:22.877Z,94732.00
2023-12-04T04:24:49.443Z,94729.40
2023-12-04T04:27:19.575Z,94734.40
2023-12-04T04:29:46.421Z,94731.40
2023-12-04T04:32:14.519Z,94732.40
2023-12-04T04:34:42.495Z,94738.20
2023-12-04T04:37:09.249Z,94737.60
2023-12-04T04:39:35.651Z,94741.20
2023-12-04T04:42:09.101Z,94741.80
2023-12-04T04:44:35.629Z,94745.20
2023-12-04T04:47:02.991Z,94752.20
2023-12-04T04:49:29.369Z,94750.40
2023-12-04T04:51:55.861Z,94751.20
2023-12-04T04:54:22.229Z,94756.00
2023-12-04T04:56:52.007Z,94758.20
2023-12-04T04:59:18.313Z,94764.60
2023-12-04T05:01:44.670Z,94764.60
2023-12-04T05:04:11.618Z,94768.60
2023-12-04T05:06:38.253Z,94773.20
2023-12-04T05:09:05.177Z,94774.00
2023-12-04T05:11:31.494Z,94776.40
2023-12-04T05:13:57.809Z,94777.60
2023-12-04T05:16:24.283Z,94774.40
2023-12-04T05:18:50.727Z,94781.80
2023-12-04T05:21:17.255Z,94780.80
2023-12-04T05:23:43.694Z,94780.20
2023-12-04T05:26:12.425Z,94779.20
2023-12-04T05:28:39.153Z,94773.20
2023-12-04T05:31:05.534Z,94782.00
2023-12-04T05:33:31.906Z,94782.80
2023-12-04T05:35:58.308Z,94782.80
2023-12-04T05:38:24.619Z,94784.40
2023-12-04T05:40:51.053Z,94786.00
2023-12-04T05:43:17.405Z,94785.00
2023-12-04T05:45:44.015Z,94789.00
2023-12-04T05:48:11.028Z,94787.40
2023-12-04T05:50:37.285Z,94794.40
2023-12-04T05:53:04.752Z,94791.20
2023-12-04T05:55:32.261Z,94791.20
2023-12-04T05:57:58.839Z,94787.60
2023-12-04T06:00:28.549Z,94790.20
2023-12-04T06:02:56.586Z,94795.00
2023-12-04T06:05:26.299Z,94795.00
2023-12-04T06:07:52.723Z,94802.60
2023-12-04T06:10:19.132Z,94799.20
2023-12-04T06:12:48.101Z,94800.20
2023-12-04T06:15:14.696Z,94783.00
2023-12-04T06:17:41.105Z,94775.00
2023-12-04T06:20:07.857Z,94770.60
2023-12-04T06:22:34.196Z,94772.80
2023-12-04T06:25:00.689Z,94774.80
2023-12-04T06:27:27.648Z,94778.80
2023-12-04T06:29:53.924Z,94782.20
2023-12-04T06:32:20.364Z,94791.20
2023-12-04T06:34:47.039Z,94792.80
2023-12-04T06:37:13.371Z,94787.80
2023-12-04T06:39:39.640Z,94782.80
2023-12-04T06:42:23.418Z,94792.80
2023-12-04T06:44:51.952Z,94792.60
2023-12-04T06:47:18.790Z,94794.80
2023-12-04T06:49:45.318Z,94792.60
2023-12-04T06:52:11.747Z,94795.60
2023-12-04T06:54:38.055Z,94795.40
2023-12-04T06:57:04.592Z,94793.80
2023-12-04T06:59:30.839Z,94797.40
2023-12-04T07:01:57.248Z,94795.60
2023-12-04T07:04:23.670Z,94797.40
2023-12-04T07:06:50.409Z,94791.80
2023-12-04T07:09:20.766Z,94796.80
2023-12-04T07:11:47.106Z,94799.60
2023-12-04T07:14:13.676Z,94793.00
2023-12-04T07:16:41.347Z,94791.80
2023-12-04T07:19:07.785Z,94789.00
2023-12-04T07:21:34.337Z,94793.20
2023-12-04T07:24:01.776Z,94788.60
2023-12-04T07:26:29.278Z,94794.00
2023-12-04T07:28:55.541Z,94793.00
2023-12-04T07:31:25.003Z,94795.80
2023-12-04T07:33:51.392Z,94796.40
2023-12-04T07:36:17.604Z,94800.80
2023-12-04T07:38:43.837Z,94799.00
2023-12-04T07:41:10.299Z,94795.20
2023-12-04T07:43:36.566Z,94792.60
2023-12-04T07:46:03.984Z,94793.80
2023-12-04T07:48:30.424Z,94784.60
2023-12-04T07:50:57.300Z,94786.60
2023-12-04T07:53:23.710Z,94786.40
2023-12-04T07:55:51.639Z,94796.40
2023-12-04T07:58:18.053Z,94795.40
2023-12-04T08:00:44.549Z,94792.60
2023-12-04T08:03:11.518Z,94791.40
2023-12-04T08:05:38.211Z,94800.80
2023-12-04T08:08:04.539Z,94798.00
2023-12-04T08:10:30.911Z,94798.60
2023-12-04T08:12:57.305Z,94807.00
2023-12-04T08:15:26.941Z,94816.80
2023-12-04T08:17:53.368Z,94814.20
2023-12-04T08:20:30.405Z,94814.20
2023-12-04T08:23:00.512Z,94816.00
2023-12-04T08:25:27.061Z,94816.80
2023-12-04T08:27:53.644Z,94814.00
2023-12-04T08:30:20.457Z,94813.80
2023-12-04T08:32:48.024Z,94810.60
2023-12-04T08:35:14.973Z,94815.80
2023-12-04T08:37:41.385Z,94826.00
2023-12-04T08:40:09.144Z,94826.20
2023-12-04T08:42:35.536Z,94827.80
2023-12-04T08:45:02.899Z,94828.40
2023-12-04T08:47:29.559Z,94827.00
2023-12-04T08:49:55.992Z,94825.80
2023-12-04T08:52:22.425Z,94826.00
2023-12-04T08:54:48.756Z,94824.80
2023-12-04T08:57:15.375Z,94819.40
2023-12-04T08:59:41.663Z,94817.80
2023-12-04T09:02:09.948Z,94825.20
2023-12-04T09:04:38.251Z,94824.00
2023-12-04T09:09:35.497Z,94813.20
2023-12-04T09:12:01.993Z,94810.40
2023-12-04T09:14:28.570Z,94808.40
2023-12-04T09:16:57.725Z,94804.40
2023-12-04T09:19:24.137Z,94800.60
2023-12-04T09:21:59.011Z,94799.20
2023-12-04T09:24:31.745Z,94802.80
2023-12-04T09:26:58.119Z,94793.80
2023-12-04T09:29:24.554Z,94795.80
2023-12-04T09:31:50.903Z,94793.20
2023-12-04T09:34:18.534Z,94787.40
2023-12-04T09:36:44.830Z,94783.80
2023-12-04T09:39:11.163Z,94780.60
2023-12-04T09:41:38.092Z,94771.40
2023-12-04T09:44:04.525Z,94769.80
2023-12-04T09:46:31.042Z,94766.40
2023-12-04T09:48:57.643Z,94761.60
2023-12-04T09:51:24.152Z,94760.00
2023-12-04T09:53:50.585Z,94749.40
2023-12-04T09:56:18.554Z,94743.80
2023-12-04T09:58:45.270Z,94737.60
2023-12-04T10:01:11.885Z,94737.00
2023-12-04T10:03:38.457Z,94729.60
2023-12-04T10:06:05.002Z,94718.80
2023-12-04T10:08:31.288Z,94714.20
2023-12-04T10:11:00.065Z,94706.00
2023-12-04T10:13:56.012Z,94702.20
2023-12-04T10:16:12.946Z,94705.60
2023-12-04T10:18:39.296Z,94694.20
2023-12-04T10:21:08.598Z,94682.60
2023-12-04T10:23:36.335Z,94676.80
2023-12-04T10:26:04.998Z,94675.60
2023-12-04T10:28:31.454Z,94674.60
2023-12-04T10:30:58.372Z,94670.00
2023-12-04T10:33:24.686Z,94670.60
2023-12-04T10:35:51.325Z,94671.60
2023-12-04T10:38:17.676Z,94672.00
2023-12-04T10:40:43.900Z,94664.40
2023-12-04T10:43:10.547Z,94658.20
2023-12-04T10:45:37.116Z,94656.20
2023-12-04T10:48:05.396Z,94650.00
2023-12-04T10:50:31.860Z,94648.20
2023-12-04T10:52:59.605Z,94647.80
2023-12-04T10:55:25.952Z,94649.20
2023-12-04T10:57:53.079Z,94646.00
2023-12-04T11:00:19.419Z,94646.20
2023-12-04T11:02:47.802Z,94639.20
2023-12-04T11:05:15.753Z,94638.80
2023-12-04T11:08:12.959Z,94637.20
2023-12-04T11:10:30.079Z,94633.80
2023-12-04T11:12:56.415Z,94631.80
2023-12-04T11:15:23.012Z,94631.20
2023-12-04T11:17:49.393Z,94629.40
2023-12-04T11:20:16.836Z,94619.60
2023-12-04T11:22:43.474Z,94617.40
2023-12-04T11:25:09.860Z,94613.80
2023-12-04T11:27:36.408Z,94616.40
2023-12-04T11:30:03.632Z,94616.80
2023-12-04T11:32:30.603Z,94615.20
2023-12-04T11:35:00.832Z,94609.00
2023-12-04T11:37:27.156Z,94609.00
2023-12-04T11:39:53.466Z,94605.20
2023-12-04T11:42:19.905Z,94596.40
2023-12-04T11:44:46.368Z,94595.40
2023-12-04T11:47:12.867Z,94591.60
2023-12-04T11:49:40.334Z,94589.60
2023-12-04T11:52:06.663Z,94584.40
2023-12-04T11:54:33.132Z,94582.40
2023-12-04T11:57:00.473Z,94572.20
2023-12-04T11:59:29.429Z,94583.40
2023-12-04T12:01:56.964Z,94577.80
2023-12-04T12:04:23.850Z,94573.40
2023-12-04T12:06:51.141Z,94572.20
2023-12-04T12:09:17.556Z,94577.40
2023-12-04T12:11:44.294Z,94568.00
2023-12-04T12:14:10.550Z,94566.20
2023-12-04T12:16:36.812Z,94563.00
2023-12-04T12:19:04.117Z,94558.20
2023-12-04T12:21:30.608Z,94556.60
2023-12-04T12:23:57.394Z,94557.20
2023-12-04T12:26:24.511Z,94549.60
2023-12-04T12:28:51.980Z,94547.00
2023-12-04T12:31:18.183Z,94540.20
2023-12-04T12:33:44.829Z,94540.00
2023-12-04T12:36:12.373Z,94538.80
2023-12-04T12:38:38.884Z,94535.80
2023-12-04T12:41:05.160Z,94535.80
2023-12-04T12:43:32.316Z,94532.60
2023-12-04T12:45:58.739Z,94532.20
2023-12-04T12:48:25.131Z,94527.40
2023-12-04T12:50:51.588Z,94526.60
2023-12-04T12:53:17.995Z,94517.80
2023-12-04T12:55:44.256Z,94514.00
2023-12-04T12:58:10.834Z,94508.00
2023-12-04T13:00:37.216Z,94508.80
2023-12-04T13:03:03.879Z,94506.80
2023-12-04T13:05:30.876Z,94502.20
2023-12-04T13:07:57.583Z,94504.20
2023-12-04T13:10:25.349Z,94502.00
2023-12-04T13:12:57.072Z,94506.40
2023-12-04T13:15:23.624Z,94503.00
2023-12-04T13:17:50.018Z,94503.80
2023-12-04T13:20:17.325Z,94497.00
2023-12-04T13:22:43.952Z,94499.00
2023-12-04T13:25:10.870Z,94496.00
2023-12-04T13:27:39.142Z,94485.20
2023-12-04T13:30:05.995Z,94482.80
2023-12-04T13:32:34.156Z,94477.80
2023-12-04T13:35:05.725Z,94481.00
2023-12-04T13:37:32.335Z,94472.40
2023-12-04T13:39:58.917Z,94470.60
2023-12-04T13:42:44.093Z,94471.40
2023-12-04T13:45:10.604Z,94471.00
2023-12-04T13:47:37.668Z,94474.00
2023-12-04T13:50:04.051Z,94467.60
2023-12-04T13:52:34.175Z,94470.20
2023-12-04T13:55:00.842Z,94473.20
2023-12-04T13:57:34.429Z,94465.40
2023-12-04T14:00:00.871Z,94466.40
2023-12-04T14:02:28.419Z,94459.00
2023-12-04T14:04:55.222Z,94459.40
2023-12-04T14:07:22.565Z,94457.00
2023-12-04T14:09:49.268Z,94457.60
2023-12-04T14:12:16.737Z,94454.80
2023-12-04T14:14:43.252Z,94454.40
2023-12-04T14:17:10.810Z,94450.60
2023-12-04T14:19:39.347Z,94448.60
2023-12-04T14:22:06.165Z,94450.00
2023-12-04T14:24:33.329Z,94450.80
2023-12-04T14:26:59.636Z,94445.60
2023-12-04T14:29:26.017Z,94453.40
2023-12-04T14:31:52.663Z,94452.80
2023-12-04T14:34:20.450Z,94452.80
2023-12-04T14:36:46.985Z,94451.60
2023-12-04T14:39:13.257Z,94444.20
2023-12-04T14:41:39.641Z,94442.60
2023-12-04T14:44:06.998Z,94437.00
2023-12-04T14:46:34.040Z,94429.00
2023-12-04T14:49:00.502Z,94432.40
2023-12-04T14:51:27.191Z,94428.20
2023-12-04T14:54:14.743Z,94425.40
2023-12-04T14:57:04.300Z,94424.40
2023-12-04T14:59:56.279Z,94423.40
2023-12-04T15:02:41.727Z,94422.40
2023-12-04T15:05:27.272Z,94426.60
2023-12-04T15:08:16.247Z,94423.80
2023-12-04T15:11:00.165Z,94422.60
2023-12-04T15:13:33.099Z,94427.80
2023-12-04T15:15:59.462Z,94434.20
2023-12-04T15:19:04.425Z,94427.20
2023-12-04T15:21:31.993Z,94424.80
2023-12-04T15:23:58.351Z,94418.40
2023-12-04T15:26:24.641Z,94417.40
2023-12-04T15:28:51.390Z,94416.00
2023-12-04T15:31:20.880Z,94415.60
2023-12-04T15:33:54.843Z,94411.80
2023-12-04T15:36:23.070Z,94413.80
2023-12-04T15:38:49.355Z,94410.40
2023-12-04T15:41:17.326Z,94407.00
2023-12-04T15:43:48.752Z,94406.60
2023-12-04T15:46:15.067Z,94407.00
2023-12-04T15:48:41.381Z,94404.60
2023-12-04T15:51:07.978Z,94399.80
2023-12-04T15:53:34.292Z,94396.00
2023-12-04T15:56:00.590Z,94394.40
2023-12-04T15:58:27.423Z,94396.00
2023-12-04T16:00:53.758Z,94391.80
2023-12-04T16:03:20.668Z,94391.00
2023-12-04T16:05:48.179Z,94391.20
2023-12-04T16:08:14.966Z,94391.20
2023-12-04T16:10:41.306Z,94393.40
2023-12-04T16:13:07.906Z,94396.60
2023-12-04T16:15:34.452Z,94391.40
2023-12-04T16:18:00.874Z,94390.80
2023-12-04T16:20:27.685Z,94386.40
2023-12-04T16:22:54.283Z,94387.80
2023-12-04T16:25:22.633Z,94387.40
2023-12-04T16:27:48.968Z,94389.80
2023-12-04T16:30:15.525Z,94381.40
2023-12-04T16:32:42.364Z,94380.00
2023-12-04T16:35:09.100Z,94380.20
2023-12-04T16:37:37.111Z,94375.60
2023-12-04T16:40:03.810Z,94374.80
2023-12-04T16:42:30.238Z,94377.80
2023-12-04T16:44:56.513Z,94386.00
2023-12-04T16:47:23.128Z,94380.40
2023-12-04T16:49:49.575Z,94382.20
2023-12-04T16:52:16.478Z,94375.00
2023-12-04T16:54:43.157Z,94377.40
2023-12-04T16:57:10.677Z,94370.80
2023-12-04T16:59:37.144Z,94366.60
2023-12-04T17:02:03.407Z,94361.60
2023-12-04T17:04:30.066Z,94356.20
2023-12-04T17:06:57.481Z,94352.80
2023-12-04T17:09:24.006Z,94357.80
2023-12-04T17:11:50.392Z,94354.20
2023-12-04T17:14:16.888Z,94352.40
2023-12-04T17:16:43.267Z,94349.00
2023-12-04T17:19:12.466Z,94340.00
2023-12-04T17:21:39.121Z,94332.40
2023-12-04T17:24:05.491Z,94348.20
2023-12-04T17:26:31.751Z,94353.20
2023-12-04T17:28:58.357Z,94353.40
2023-12-04T17:31:24.668Z,94351.80
2023-12-04T17:33:51.113Z,94357.80
2023-12-04T17:36:18.308Z,94357.40
2023-12-04T17:38:44.637Z,94354.80
2023-12-04T17:41:11.014Z,94347.00
2023-12-04T17:43:37.451Z,94344.60
2023-12-04T17:46:03.758Z,94342.20
2023-12-04T17:48:30.009Z,94342.60
2023-12-04T17:50:56.355Z,94352.60
2023-12-04T17:53:22.880Z,94338.00
2023-12-04T17:55:49.155Z,94327.40
2023-12-04T17:58:15.453Z,94322.20
2023-12-04T18:00:41.859Z,94319.40
2023-12-04T18:03:11.006Z,94325.80
2023-12-04T18:05:37.914Z,94335.60
2023-12-04T18:08:04.446Z,94335.80
2023-12-04T18:10:30.775Z,94331.60
2023-12-04T18:12:57.049Z,94328.40
2023-12-04T18:15:23.489Z,94323.80
2023-12-04T18:17:51.762Z,94322.20
2023-12-04T18:20:18.333Z,94311.20
2023-12-04T18:22:44.884Z,94321.80
2023-12-04T18:25:11.396Z,94323.60
2023-12-04T18:27:38.100Z,94316.40
2023-12-04T18:30:04.768Z,94317.60
2023-12-04T18:32:31.223Z,94326.40
2023-12-04T18:34:58.826Z,94330.00
2023-12-04T18:37:25.944Z,94319.00
2023-12-04T18:39:53.072Z,94297.80
2023-12-04T18:42:19.342Z,94297.00
2023-12-04T18:44:45.811Z,94304.20
2023-12-04T18:47:12.090Z,94292.80
2023-12-04T18:49:39.697Z,94286.80
2023-12-04T18:52:06.524Z,94282.20
2023-12-04T18:54:32.801Z,94275.00
2023-12-04T18:56:59.124Z,94273.20
2023-12-04T18:59:26.239Z,94270.60
2023-12-04T19:01:52.597Z,94274.00
2023-12-04T19:04:19.161Z,94255.20
2023-12-04T19:06:46.181Z,94245.40
2023-12-04T19:09:13.664Z,94247.80
2023-12-04T19:11:39.949Z,94239.60
2023-12-04T19:14:09.824Z,94238.40
2023-12-04T19:16:37.836Z,94241.00
2023-12-04T19:19:05.605Z,94239.80
2023-12-04T19:21:32.091Z,94249.40
2023-12-04T19:23:58.405Z,94254.20
2023-12-04T19:26:24.773Z,94249.60
2023-12-04T19:28:51.384Z,94240.80
2023-12-04T19:31:17.894Z,94236.60
2023-12-04T19:33:44.488Z,94238.00
2023-12-04T19:36:11.204Z,94236.40
2023-12-04T19:38:39.506Z,94239.60
2023-12-04T19:41:07.741Z,94246.80
2023-12-04T19:43:34.251Z,94250.80
2023-12-04T19:46:01.195Z,94244.60
2023-12-04T19:48:27.627Z,94255.40
2023-12-04T19:50:55.618Z,94257.80
2023-12-04T19:53:23.389Z,94254.80
2023-12-04T19:55:49.731Z,94246.80
2023-12-04T19:58:19.097Z,94247.20
2023-12-04T20:00:45.445Z,94257.00
2023-12-04T20:03:12.679Z,94249.20
2023-12-04T20:05:39.969Z,94249.80
2023-12-04T20:08:08.374Z,94243.20
2023-12-04T20:10:38.313Z,94243.60
2023-12-04T20:13:04.744Z,94241.60
2023-12-04T20:15:32.693Z,94244.80
2023-12-04T20:17:59.374Z,94245.20
2023-12-04T20:20:25.861Z,94244.40
2023-12-04T20:22:52.693Z,94244.80
2023-12-04T20:25:19.060Z,94247.60
2023-12-04T20:27:45.378Z,94238.00
2023-12-04T20:30:12.120Z,94237.40
2023-12-04T20:32:42.232Z,94232.20
2023-12-04T20:35:09.135Z,94232.00
2023-12-04T20:37:41.728Z,94228.00
2023-12-04T20:40:09.767Z,94234.60
2023-12-04T20:42:36.846Z,94232.60
2023-12-04T20:45:04.191Z,94232.20
2023-12-04T20:47:30.774Z,94220.60
2023-12-04T20:49:57.207Z,94214.00
2023-12-04T20:52:23.733Z,94211.40
2023-12-04T20:54:50.133Z,94216.40
2023-12-04T20:57:17.395Z,94211.80
2023-12-04T20:59:43.875Z,94215.60
2023-12-04T21:02:10.814Z,94211.80
2023-12-04T21:04:37.136Z,94223.40
2023-12-04T21:07:03.763Z,94216.00
2023-12-04T21:09:31.365Z,94218.40
2023-12-04T21:11:58.112Z,94238.60
2023-12-04T21:14:26.554Z,94235.80
2023-12-04T21:16:58.869Z,94233.60
2023-12-04T21:19:27.935Z,94232.20
2023-12-04T21:21:54.736Z,94226.00
2023-12-04T21:24:21.485Z,94217.40
2023-12-04T21:26:47.788Z,94217.40
2023-12-04T21:29:14.190Z,94222.60
2023-12-04T21:31:40.973Z,94219.60
2023-12-04T21:34:07.287Z,94206.60
2023-12-04T21:36:33.736Z,94194.00
2023-12-04T21:39:00.365Z,94192.00
2023-12-04T21:41:26.846Z,94190.80
2023-12-04T21:43:53.212Z,94206.20
2023-12-04T21:46:19.581Z,94197.20
2023-12-04T21:48:46.356Z,94188.20
2023-12-04T21:51:12.722Z,94191.40
2023-12-04T21:53:41.312Z,94198.40
2023-12-04T21:56:07.827Z,94191.40
2023-12-04T21:58:34.240Z,94184.20
2023-12-04T22:01:01.460Z,94181.40
2023-12-04T22:03:27.933Z,94170.40
2023-12-04T22:05:54.656Z,94160.60
2023-12-04T22:08:21.033Z,94153.20
2023-12-04T22:10:47.612Z,94145.00
2023-12-04T22:13:13.962Z,94151.60
2023-12-04T22:15:40.312Z,94138.60
2023-12-04T22:18:06.963Z,94131.40
2023-12-04T22:20:33.711Z,94134.20
2023-12-04T22:23:01.024Z,94129.60
2023-12-04T22:25:27.500Z,94128.40
2023-12-04T22:27:53.907Z,94126.00
2023-12-04T22:30:20.296Z,94120.40
2023-12-04T22:32:46.581Z,94108.60
2023-12-04T22:35:12.900Z,94104.40
2023-12-04T22:37:39.434Z,94096.80
2023-12-04T22:40:09.434Z,94096.40
2023-12-04T22:42:36.708Z,94102.40
2023-12-04T22:45:02.990Z,94101.60
2023-12-04T22:47:29.462Z,94087.20
2023-12-04T22:49:56.113Z,94083.80
2023-12-04T22:52:22.769Z,94079.40
2023-12-04T22:54:50.492Z,94064.80
2023-12-04T22:57:16.959Z,94056.40
2023-12-04T22:59:43.178Z,94062.20
2023-12-04T23:02:09.575Z,94067.20
2023-12-04T23:04:36.438Z,94067.20
2023-12-04T23:07:02.890Z,94061.00
2023-12-04T23:09:29.413Z,94064.60
2023-12-04T23:11:55.917Z,94060.80
2023-12-04T23:14:22.274Z,94053.20
2023-12-04T23:16:48.602Z,94046.00
2023-12-04T23:19:18.078Z,94042.00
2023-12-04T23:21:44.682Z,94042.20
2023-12-04T23:24:11.534Z,94040.80
2023-12-04T23:26:37.976Z,94037.00
2023-12-04T23:29:05.069Z,94035.60
2023-12-04T23:31:32.278Z,94029.80
2023-12-04T23:33:58.718Z,94012.60
2023-12-04T23:36:25.953Z,94011.80
2023-12-04T23:38:54.890Z,94014.80
2023-12-04T23:41:21.519Z,94014.20
2023-12-04T23:43:51.605Z,94012.60
2023-12-04T23:46:20.385Z,94011.60
2023-12-04T23:49:16.879Z,94008.00
2023-12-04T23:54:48.420Z,94015.20
2023-12-04T23:57:14.747Z,94013.20
2023-12-04T23:59:41.021Z,94013.00
